Time;durP1;ratioP1;P1;durP2;ratioP2;P2;SDS_P1;SDS_P2;PMS_P1;PMS_P2;Temp;Humidity;BMP_temperature;BMP_pressure;BME280_temperature;BME280_humidity;BME280_pressure;Samples;Min_cycle;Max_cycle;Signal;HPM_P1;HPM_P2
2023/01/23 00:01:50;;;;;;;58.83;21.92;;;;;;;1.60;100.00;103451.34;5028996;28;20044;-70
2023/01/23 00:04:16;;;;;;;47.88;18.65;;;;;;;1.49;100.00;103452.94;5009887;28;20041;-70
2023/01/23 00:06:42;;;;;;;52.38;20.65;;;;;;;1.41;100.00;103444.94;5027796;28;20103;-70
2023/01/23 00:09:07;;;;;;;62.88;21.63;;;;;;;1.58;100.00;103457.47;5029392;28;20048;-71
2023/01/23 00:11:33;;;;;;;55.33;19.02;;;;;;;1.44;100.00;103442.34;5029613;28;20041;-70
2023/01/23 00:14:00;;;;;;;55.40;20.60;;;;;;;1.46;100.00;103450.28;5027197;28;20044;-70
2023/01/23 00:16:31;;;;;;;55.75;20.65;;;;;;;1.48;100.00;103446.78;5032967;28;20033;-70
2023/01/23 00:18:57;;;;;;;61.75;21.42;;;;;;;1.38;100.00;103444.00;5027753;28;20122;-70
2023/01/23 00:21:25;;;;;;;52.47;20.90;;;;;;;1.38;100.00;103441.38;5026510;28;20041;-70
2023/01/23 00:23:54;;;;;;;53.28;18.67;;;;;;;1.35;100.00;103439.56;5026940;28;20803;-70
2023/01/23 00:26:22;;;;;;;49.17;19.40;;;;;;;1.32;100.00;103446.53;5031178;28;20140;-70
2023/01/23 00:28:48;;;;;;;48.28;19.25;;;;;;;1.41;100.00;103449.31;5031393;28;20029;-70
2023/01/23 00:31:17;;;;;;;50.58;19.75;;;;;;;1.30;100.00;103451.72;5010341;28;20060;-71
2023/01/23 00:33:43;;;;;;;64.47;21.50;;;;;;;1.41;100.00;103454.56;5010551;28;20801;-70
2023/01/23 00:36:10;;;;;;;50.63;20.90;;;;;;;1.42;100.00;103457.22;5027803;28;20056;-70
2023/01/23 00:38:36;;;;;;;54.35;18.13;;;;;;;1.35;100.00;103463.22;5007175;28;20072;-70
2023/01/23 00:41:02;;;;;;;56.13;20.30;;;;;;;1.50;100.00;103468.72;5026099;28;20164;-71
2023/01/23 00:43:29;;;;;;;52.90;21.40;;;;;;;1.47;100.00;103467.81;5028661;28;20041;-71
2023/01/23 00:45:54;;;;;;;66.95;21.80;;;;;;;1.48;100.00;103469.56;5024604;28;20091;-70
2023/01/23 00:48:19;;;;;;;53.78;21.35;;;;;;;1.52;100.00;103469.66;5021303;28;20861;-70
2023/01/23 00:50:46;;;;;;;58.80;21.35;;;;;;;1.57;100.00;103474.13;5006298;28;20184;-70
2023/01/23 00:53:12;;;;;;;59.03;22.30;;;;;;;1.52;100.00;103471.41;5007239;28;20108;-70
2023/01/23 00:55:38;;;;;;;64.90;21.38;;;;;;;1.52;100.00;103476.66;5027672;28;20048;-70
2023/01/23 00:58:03;;;;;;;70.32;22.90;;;;;;;1.56;100.00;103470.59;4999087;28;20037;-70
2023/01/23 01:00:29;;;;;;;61.65;23.35;;;;;;;1.60;100.00;103475.03;5004145;28;20048;-70
2023/01/23 01:02:57;;;;;;;57.17;20.85;;;;;;;1.67;100.00;103479.53;5001162;28;20096;-70
2023/01/23 01:05:23;;;;;;;67.28;22.75;;;;;;;1.66;100.00;103469.88;5007046;28;20033;-70
2023/01/23 01:07:48;;;;;;;65.43;21.63;;;;;;;1.62;100.00;103478.59;5017760;28;20169;-70
2023/01/23 01:10:14;;;;;;;66.55;24.17;;;;;;;1.65;100.00;103475.97;5001861;28;20045;-70
2023/01/23 01:12:39;;;;;;;68.00;23.42;;;;;;;1.65;100.00;103469.84;5020609;28;20041;-71
2023/01/23 01:15:06;;;;;;;63.13;22.38;;;;;;;1.66;100.00;103479.53;4999856;28;20062;-70
2023/01/23 01:17:32;;;;;;;68.75;24.00;;;;;;;1.88;100.00;103475.47;5004206;28;20439;-70
2023/01/23 01:19:58;;;;;;;61.22;24.75;;;;;;;1.71;100.00;103476.09;5001406;28;20788;-70
2023/01/23 01:22:23;;;;;;;55.75;24.33;;;;;;;1.78;100.00;103469.19;4999952;28;20065;-71
2023/01/23 01:24:48;;;;;;;61.28;22.40;;;;;;;1.83;100.00;103474.53;5000875;28;20125;-70
2023/01/23 01:27:14;;;;;;;68.45;25.85;;;;;;;1.75;100.00;103477.00;5003478;28;20124;-70
2023/01/23 01:29:39;;;;;;;66.30;25.50;;;;;;;1.78;100.00;103483.22;4997371;28;20029;-71
2023/01/23 01:32:05;;;;;;;75.07;25.42;;;;;;;1.87;100.00;103478.97;5004837;28;20507;-70
2023/01/23 01:34:30;;;;;;;59.58;22.80;;;;;;;1.84;100.00;103473.66;4998747;28;20030;-70
2023/01/23 01:36:56;;;;;;;63.38;23.20;;;;;;;1.86;100.00;103478.09;5008557;28;20558;-70
2023/01/23 01:39:22;;;;;;;76.35;24.33;;;;;;;1.84;100.00;103478.91;5002821;28;20076;-70
2023/01/23 01:41:47;;;;;;;65.10;24.00;;;;;;;2.08;100.00;103480.16;5001588;28;20042;-70
2023/01/23 01:44:17;;;;;;;70.95;24.70;;;;;;;1.87;100.00;103484.25;5000381;28;20083;-70
2023/01/23 01:46:47;;;;;;;63.42;24.15;;;;;;;1.87;100.00;103478.97;4999969;28;20044;-71
2023/01/23 01:49:15;;;;;;;70.22;26.00;;;;;;;1.95;100.00;103480.84;5002666;28;20037;-70
2023/01/23 01:51:49;;;;;;;71.70;23.73;;;;;;;1.85;100.00;103481.56;4998351;28;20487;-70
2023/01/23 01:54:28;;;;;;;71.03;22.95;;;;;;;1.81;100.00;103485.91;4997841;28;20458;-70
2023/01/23 01:56:59;;;;;;;69.47;25.45;;;;;;;1.87;100.00;103494.75;4997003;28;20037;-70
2023/01/23 01:59:28;;;;;;;69.80;26.17;;;;;;;1.90;100.00;103490.41;5013106;28;20718;-70
2023/01/23 02:02:03;;;;;;;69.32;25.15;;;;;;;1.93;100.00;103494.84;4994988;28;20037;-70
2023/01/23 02:04:31;;;;;;;64.93;23.48;;;;;;;1.83;100.00;103495.56;5005297;28;20069;-70
2023/01/23 02:07:02;;;;;;;62.38;21.90;;;;;;;1.94;100.00;103486.09;4973942;28;20034;-70
2023/01/23 02:09:27;;;;;;;53.90;22.58;;;;;;;1.81;100.00;103492.91;4999103;28;20049;-70
2023/01/23 02:11:53;;;;;;;72.93;25.73;;;;;;;1.85;100.00;103492.09;5012055;28;20088;-70
2023/01/23 02:14:19;;;;;;;75.22;25.52;;;;;;;1.80;100.00;103486.75;4996446;28;20046;-71
2023/01/23 02:16:49;;;;;;;74.13;23.40;;;;;;;1.89;100.00;103495.66;5002450;28;20125;-70
2023/01/23 02:19:30;;;;;;;67.32;24.83;;;;;;;2.08;100.00;103497.72;4999373;28;20037;-70
2023/01/23 02:22:20;;;;;;;68.05;24.83;;;;;;;1.99;100.00;103487.91;5001238;28;20038;-70
2023/01/23 02:25:02;;;;;;;62.97;24.38;;;;;;;2.10;100.00;103485.44;4972915;28;20112;-70
2023/01/23 02:27:28;;;;;;;67.25;24.48;;;;;;;2.18;100.00;103485.56;5001788;28;20038;-70
2023/01/23 02:29:55;;;;;;;66.57;23.17;;;;;;;2.13;100.00;103482.88;5002372;28;20096;-70
2023/01/23 02:32:25;;;;;;;70.40;24.85;;;;;;;2.19;100.00;103485.56;5005554;28;20817;-70
2023/01/23 02:34:56;;;;;;;70.57;23.10;;;;;;;2.26;100.00;103482.19;5002948;28;20140;-70
2023/01/23 02:37:26;;;;;;;64.22;24.60;;;;;;;2.28;100.00;103480.44;5003887;28;20800;-70
2023/01/23 02:39:52;;;;;;;70.07;26.35;;;;;;;2.20;100.00;103482.06;5003113;28;20041;-70
2023/01/23 02:42:20;;;;;;;68.28;24.80;;;;;;;2.20;100.00;103487.34;5002007;28;20434;-70
2023/01/23 02:44:52;;;;;;;63.65;24.15;;;;;;;2.10;100.00;103484.56;5000770;28;20049;-71
2023/01/23 02:47:18;;;;;;;62.38;25.58;;;;;;;2.34;100.00;103477.88;4998940;28;20037;-70
2023/01/23 02:49:43;;;;;;;60.17;24.05;;;;;;;2.01;100.00;103485.34;5001666;28;20050;-71
2023/01/23 02:52:09;;;;;;;70.55;24.63;;;;;;;2.07;100.00;103480.16;5001279;28;20064;-70
2023/01/23 02:54:35;;;;;;;62.67;23.98;;;;;;;2.10;100.00;103487.19;4999107;28;20034;-70
2023/01/23 02:57:01;;;;;;;71.13;23.05;;;;;;;1.93;100.00;103479.06;5007061;28;20080;-70
2023/01/23 03:02:13;;;;;;;68.65;25.05;;;;;;;2.21;100.00;103483.88;5013471;28;20053;-71
2023/01/23 03:04:39;;;;;;;70.60;24.85;;;;;;;1.93;100.00;103487.84;4999817;28;20026;-70
2023/01/23 03:07:07;;;;;;;67.57;25.27;;;;;;;2.00;100.00;103483.53;5004703;28;20046;-70
2023/01/23 03:09:33;;;;;;;74.50;24.63;;;;;;;1.94;100.00;103491.34;5005125;28;20847;-71
2023/01/23 03:11:59;;;;;;;67.82;23.45;;;;;;;1.80;100.00;103491.13;5001249;28;20108;-71
2023/01/23 03:14:25;;;;;;;64.22;23.65;;;;;;;1.91;100.00;103492.19;5012572;28;20053;-70
2023/01/23 03:16:52;;;;;;;66.22;25.20;;;;;;;1.97;100.00;103499.31;5002107;28;20049;-70
2023/01/23 03:19:23;;;;;;;68.78;24.27;;;;;;;1.87;100.00;103497.38;5005259;28;20045;-70
2023/01/23 03:21:49;;;;;;;72.35;23.80;;;;;;;2.06;100.00;103505.59;5002211;28;20065;-71
2023/01/23 03:24:16;;;;;;;66.70;25.35;;;;;;;2.08;100.00;103506.47;5022371;28;20037;-70
2023/01/23 03:26:43;;;;;;;64.47;25.15;;;;;;;2.09;100.00;103510.00;5019231;28;20395;-71
2023/01/23 03:32:03;;;;;;;67.75;26.17;;;;;;;2.30;100.00;103505.03;5027805;28;20037;-70
2023/01/23 03:34:30;;;;;;;78.68;26.58;;;;;;;2.10;100.00;103498.59;4995652;28;20064;-70
2023/01/23 03:36:55;;;;;;;64.10;24.45;;;;;;;2.14;100.00;103497.78;5000875;28;20490;-70
2023/01/23 03:42:10;;;;;;;68.05;25.23;;;;;;;2.00;100.00;103497.56;5014213;28;20052;-70
2023/01/23 03:44:36;;;;;;;75.40;26.05;;;;;;;2.02;100.00;103506.41;4998272;28;20042;-70
2023/01/23 03:47:01;;;;;;;60.08;21.88;;;;;;;1.91;100.00;103499.19;5001408;28;20107;-72
2023/01/23 03:49:27;;;;;;;64.25;25.20;;;;;;;1.95;100.00;103515.03;5002122;28;20030;-70
2023/01/23 03:51:58;;;;;;;64.63;26.05;;;;;;;1.95;100.00;103516.78;5022002;28;20049;-70
2023/01/23 03:54:23;;;;;;;62.90;24.15;;;;;;;1.90;100.00;103514.09;5004133;28;20383;-70
2023/01/23 03:56:49;;;;;;;59.95;24.15;;;;;;;1.95;100.00;103517.66;4983724;28;20030;-70
2023/01/23 03:59:33;;;;;;;65.78;23.98;;;;;;;1.91;100.00;103526.41;5017932;28;20056;-70
2023/01/23 04:02:03;;;;;;;71.35;24.23;;;;;;;2.03;100.00;103521.31;4998299;28;20107;-70
2023/01/23 04:04:29;;;;;;;77.78;26.08;;;;;;;1.94;100.00;103520.28;4997743;28;20033;-71
2023/01/23 04:06:54;;;;;;;68.75;24.92;;;;;;;1.97;100.00;103521.22;4999068;28;21919;-70
2023/01/23 04:09:26;;;;;;;60.13;23.42;;;;;;;1.80;100.00;103522.69;5022021;28;20030;-70
2023/01/23 04:11:57;;;;;;;59.27;22.63;;;;;;;1.86;100.00;103519.28;5000532;28;20033;-70
2023/01/23 04:14:24;;;;;;;67.57;25.30;;;;;;;1.98;100.00;103508.97;5001866;28;20045;-71
2023/01/23 04:16:50;;;;;;;61.22;24.17;;;;;;;1.92;100.00;103516.75;5002401;28;20036;-71
2023/01/23 04:19:20;;;;;;;66.72;26.33;;;;;;;1.88;100.00;103520.19;5019166;28;20037;-70
2023/01/23 04:21:47;;;;;;;57.53;23.63;;;;;;;1.85;100.00;103522.78;5005410;28;21161;-70
2023/01/23 04:24:13;;;;;;;65.68;25.30;;;;;;;1.87;100.00;103523.69;5024317;28;20061;-69
2023/01/23 04:26:38;;;;;;;62.67;23.80;;;;;;;1.87;100.00;103526.31;5000051;28;20203;-70
2023/01/23 04:29:04;;;;;;;61.60;24.52;;;;;;;1.97;100.00;103521.22;5000872;28;20033;-70
2023/01/23 04:31:30;;;;;;;70.93;24.83;;;;;;;1.81;100.00;103519.22;5021736;28;20053;-70
2023/01/23 04:33:56;;;;;;;73.13;24.92;;;;;;;1.91;100.00;103523.78;5002449;28;20038;-70
2023/01/23 04:36:21;;;;;;;62.53;23.17;;;;;;;1.80;100.00;103520.06;5003477;28;20509;-70
2023/01/23 04:38:47;;;;;;;67.38;27.10;;;;;;;1.94;100.00;103518.53;5025396;28;20127;-70
2023/01/23 04:41:22;;;;;;;65.40;27.90;;;;;;;1.90;100.00;103527.25;4999527;28;20037;-70
2023/01/23 04:44:18;;;;;;;71.95;24.25;;;;;;;1.93;100.00;103532.56;5006214;28;20665;-70
2023/01/23 04:46:42;;;;;;;52.20;22.98;;;;;;;1.90;100.00;103529.88;5022921;28;20573;-70
2023/01/23 04:49:12;;;;;;;69.05;25.67;;;;;;;2.02;100.00;103526.56;5005348;28;20033;-70
2023/01/23 04:51:38;;;;;;;61.38;24.85;;;;;;;2.02;100.00;103526.56;5027300;28;20128;-70
2023/01/23 04:54:03;;;;;;;60.45;23.85;;;;;;;1.88;100.00;103525.47;5003299;28;20188;-70
2023/01/23 04:56:29;;;;;;;67.50;26.83;;;;;;;1.97;100.00;103528.25;5029831;28;20033;-70
2023/01/23 04:58:55;;;;;;;58.00;24.95;;;;;;;2.05;100.00;103523.97;5010341;28;20569;-70
2023/01/23 05:01:22;;;;;;;60.40;25.17;;;;;;;2.15;100.00;103527.63;5021539;28;20033;-70
2023/01/23 05:03:50;;;;;;;70.80;26.55;;;;;;;1.95;100.00;103529.94;5025139;28;20052;-70
2023/01/23 05:06:16;;;;;;;57.15;25.02;;;;;;;1.91;100.00;103536.94;5007632;28;20038;-70
2023/01/23 05:08:43;;;;;;;63.17;23.35;;;;;;;1.94;100.00;103541.34;5028610;28;20091;-70
2023/01/23 05:11:18;;;;;;;64.50;23.73;;;;;;;2.06;100.00;103544.19;5009305;28;20037;-70
2023/01/23 05:13:46;;;;;;;62.17;25.38;;;;;;;1.99;100.00;103535.28;5003726;28;20034;-70
2023/01/23 05:16:13;;;;;;;70.25;25.45;;;;;;;2.09;100.00;103541.56;5011409;28;20041;-70
2023/01/23 05:18:59;;;;;;;59.03;22.77;;;;;;;1.99;100.00;103537.91;4981663;28;20073;-70
2023/01/23 05:21:26;;;;;;;72.07;26.45;;;;;;;2.03;100.00;103537.09;5002839;28;20041;-71
2023/01/23 05:23:52;;;;;;;63.05;25.15;;;;;;;1.99;100.00;103545.81;5001870;28;20807;-70
2023/01/23 05:26:19;;;;;;;68.40;25.80;;;;;;;2.08;100.00;103545.06;5002364;28;20514;-70
2023/01/23 05:28:45;;;;;;;66.03;22.58;;;;;;;2.03;100.00;103544.13;5006298;28;20034;-70
2023/01/23 05:31:11;;;;;;;59.45;24.73;;;;;;;1.99;100.00;103545.81;5007689;28;21954;-70
2023/01/23 05:33:41;;;;;;;67.45;24.35;;;;;;;2.00;100.00;103546.69;5003384;28;20761;-70
2023/01/23 05:36:07;;;;;;;64.30;24.20;;;;;;;2.00;100.00;103544.06;5020593;28;20128;-70
2023/01/23 05:38:32;;;;;;;65.63;24.55;;;;;;;1.96;100.00;103547.53;5005097;28;20034;-72
2023/01/23 05:40:59;;;;;;;68.55;25.52;;;;;;;1.95;100.00;103551.00;5006810;28;20036;-70
2023/01/23 05:43:30;;;;;;;68.88;24.70;;;;;;;1.92;100.00;103551.84;5006503;28;20039;-70
2023/01/23 05:46:15;;;;;;;59.05;24.38;;;;;;;1.93;100.00;103560.63;5026779;28;20048;-70
2023/01/23 05:48:50;;;;;;;63.30;24.98;;;;;;;2.00;100.00;103573.00;5008371;28;20037;-71
2023/01/23 05:51:16;;;;;;;69.85;24.05;;;;;;;1.86;100.00;103575.44;4988235;28;20044;-70
2023/01/23 05:53:42;;;;;;;60.60;22.55;;;;;;;1.93;100.00;103574.66;5004363;28;20060;-70
2023/01/23 05:56:09;;;;;;;58.15;23.05;;;;;;;1.89;100.00;103574.59;5001404;28;20033;-70
2023/01/23 05:58:42;;;;;;;62.60;23.10;;;;;;;1.94;100.00;103576.44;5003721;28;20115;-70
2023/01/23 06:01:23;;;;;;;54.10;23.75;;;;;;;2.00;100.00;103570.38;5004628;28;20041;-70
2023/01/23 06:04:07;;;;;;;58.20;26.50;;;;;;;2.01;100.00;103577.44;5027746;28;20052;-70
2023/01/23 06:06:47;;;;;;;56.42;22.77;;;;;;;1.97;100.00;103578.25;5000880;28;20103;-70
2023/01/23 06:09:12;;;;;;;62.08;25.20;;;;;;;1.90;100.00;103577.22;4998103;28;20670;-70
2023/01/23 06:11:38;;;;;;;69.25;25.25;;;;;;;2.09;100.00;103583.69;5006458;28;20556;-70
2023/01/23 06:14:06;;;;;;;62.10;26.75;;;;;;;2.00;100.00;103579.16;5016795;28;20119;-69
2023/01/23 06:16:31;;;;;;;58.88;23.83;;;;;;;2.03;100.00;103583.59;4989869;28;20891;-71
2023/01/23 06:19:03;;;;;;;66.43;25.60;;;;;;;2.03;100.00;103581.84;5003630;28;20542;-70
2023/01/23 06:21:31;;;;;;;74.97;25.25;;;;;;;2.03;100.00;103584.47;5003785;28;20029;-70
2023/01/23 06:24:06;;;;;;;63.72;24.50;;;;;;;2.05;100.00;103588.00;5006994;28;20071;-70
2023/01/23 06:26:32;;;;;;;66.10;25.85;;;;;;;2.14;100.00;103591.66;5002750;28;20045;-70
2023/01/23 06:28:57;;;;;;;60.80;24.58;;;;;;;2.10;100.00;103587.19;5029756;28;20033;-72
2023/01/23 06:31:23;;;;;;;68.75;25.42;;;;;;;2.03;100.00;103589.75;5003324;28;20486;-70
2023/01/23 06:33:52;;;;;;;62.60;25.58;;;;;;;2.02;100.00;103581.84;5002975;28;20478;-70
2023/01/23 06:36:21;;;;;;;63.03;24.73;;;;;;;2.00;100.00;103586.16;5000981;28;20037;-71
2023/01/23 06:38:47;;;;;;;60.35;23.63;;;;;;;1.98;100.00;103586.16;5004495;28;20509;-70
2023/01/23 06:41:14;;;;;;;78.93;25.23;;;;;;;2.03;100.00;103586.22;5005275;28;20503;-70
2023/01/23 06:43:46;;;;;;;72.85;26.05;;;;;;;2.02;100.00;103587.97;5010758;28;20600;-70
2023/01/23 06:46:17;;;;;;;70.88;27.40;;;;;;;2.21;100.00;103586.53;5011199;28;20045;-70
2023/01/23 06:48:43;;;;;;;61.60;25.10;;;;;;;2.15;100.00;103582.91;5014692;28;20539;-71
2023/01/23 06:51:08;;;;;;;64.15;25.63;;;;;;;2.06;100.00;103588.91;5032985;28;20120;-70
2023/01/23 06:53:34;;;;;;;72.93;27.38;;;;;;;2.19;100.00;103596.13;5008263;28;20033;-70
2023/01/23 06:56:05;;;;;;;67.55;25.38;;;;;;;2.22;100.00;103590.03;5023177;28;20044;-69
2023/01/23 06:58:33;;;;;;;68.35;25.98;;;;;;;2.18;100.00;103601.38;5008253;28;20036;-70
2023/01/23 07:01:07;;;;;;;59.30;27.13;;;;;;;2.23;100.00;103592.69;5008501;28;20038;-70
2023/01/23 07:03:52;;;;;;;66.18;25.98;;;;;;;2.17;100.00;103595.22;5020368;28;20546;-71
2023/01/23 07:06:18;;;;;;;62.30;24.08;;;;;;;2.18;100.00;103594.38;5011149;28;20124;-70
2023/01/23 07:08:44;;;;;;;60.70;24.20;;;;;;;2.11;100.00;103594.22;5019744;28;20487;-70
2023/01/23 07:11:09;;;;;;;64.60;25.60;;;;;;;2.22;100.00;103595.31;5024213;28;20041;-71
2023/01/23 07:13:35;;;;;;;71.88;27.33;;;;;;;2.19;100.00;103601.41;5011198;28;20033;-70
2023/01/23 07:16:01;;;;;;;57.65;22.65;;;;;;;2.16;100.00;103608.34;5018673;28;20822;-70
2023/01/23 07:18:31;;;;;;;58.65;25.08;;;;;;;2.24;100.00;103610.25;5011006;28;20091;-71
2023/01/23 07:21:04;;;;;;;61.67;24.70;;;;;;;2.26;100.00;103612.91;5022804;28;20057;-70
2023/01/23 07:23:29;;;;;;;61.67;24.90;;;;;;;2.17;100.00;103611.03;5029863;28;20047;-70
2023/01/23 07:26:06;;;;;;;67.22;25.38;;;;;;;2.20;100.00;103608.44;5027448;28;20878;-69
2023/01/23 07:28:31;;;;;;;62.83;25.70;;;;;;;2.17;100.00;103621.56;5030760;28;20048;-70
2023/01/23 07:30:58;;;;;;;56.22;23.92;;;;;;;2.24;100.00;103623.41;5023625;28;20048;-71
2023/01/23 07:33:24;;;;;;;60.50;24.52;;;;;;;2.23;100.00;103624.28;5032010;28;20036;-70
2023/01/23 07:35:49;;;;;;;58.17;24.30;;;;;;;2.23;100.00;103623.41;5030478;28;20037;-70
2023/01/23 07:38:15;;;;;;;72.07;25.40;;;;;;;2.22;100.00;103624.25;5024497;28;20026;-70
2023/01/23 07:40:42;;;;;;;62.30;24.42;;;;;;;2.27;100.00;103630.50;5020802;28;20034;-70
2023/01/23 07:43:08;;;;;;;56.47;23.67;;;;;;;2.33;100.00;103634.09;5028755;28;20041;-70
2023/01/23 07:45:34;;;;;;;66.97;25.05;;;;;;;2.36;100.00;103633.28;5022946;28;20115;-70
2023/01/23 07:47:59;;;;;;;67.72;24.15;;;;;;;2.29;100.00;103642.81;5029124;28;20047;-70
2023/01/23 07:50:25;;;;;;;61.25;24.90;;;;;;;2.41;100.00;103644.75;5028144;28;20081;-70
2023/01/23 07:52:50;;;;;;;61.05;24.88;;;;;;;2.38;100.00;103644.69;5026234;28;20091;-70
2023/01/23 07:55:16;;;;;;;58.75;24.52;;;;;;;2.32;100.00;103648.13;5028312;28;20504;-70
2023/01/23 07:57:41;;;;;;;54.28;23.92;;;;;;;2.45;100.00;103646.56;5033745;28;20401;-70
2023/01/23 08:00:09;;;;;;;60.20;24.45;;;;;;;2.33;100.00;103647.25;5030656;28;20045;-70
2023/01/23 08:02:38;;;;;;;51.65;23.23;;;;;;;2.34;100.00;103642.88;5006719;28;20084;-71
2023/01/23 08:05:03;;;;;;;60.97;24.10;;;;;;;2.48;100.00;103643.97;5034356;28;20033;-70
2023/01/23 08:07:29;;;;;;;56.92;23.92;;;;;;;2.41;100.00;103646.47;5024503;28;20479;-70
2023/01/23 08:09:54;;;;;;;65.40;24.63;;;;;;;2.52;100.00;103648.44;5021072;28;20140;-70
2023/01/23 08:12:19;;;;;;;60.90;25.23;;;;;;;2.41;100.00;103655.31;5030373;28;20478;-70
2023/01/23 08:14:46;;;;;;;57.92;22.98;;;;;;;2.47;100.00;103662.41;5027632;28;20041;-70
2023/01/23 08:17:11;;;;;;;53.50;23.10;;;;;;;2.56;100.00;103654.63;5026708;28;20494;-70
2023/01/23 08:19:37;;;;;;;65.15;26.33;;;;;;;2.54;100.00;103654.59;5012510;28;20049;-70
2023/01/23 08:22:03;;;;;;;52.90;24.00;;;;;;;2.51;100.00;103659.84;5028873;28;20038;-70
2023/01/23 08:24:28;;;;;;;61.20;24.77;;;;;;;2.59;100.00;103657.31;5027480;28;20057;-70
2023/01/23 08:26:53;;;;;;;51.83;23.90;;;;;;;2.60;100.00;103659.97;5031574;28;20041;-70
2023/01/23 08:29:19;;;;;;;63.75;23.67;;;;;;;2.55;100.00;103658.13;5032495;28;20037;-70
2023/01/23 08:31:44;;;;;;;61.60;24.23;;;;;;;2.56;100.00;103665.16;5031123;28;20049;-70
2023/01/23 08:34:10;;;;;;;66.05;24.55;;;;;;;2.57;100.00;103659.06;5027372;28;20129;-71
2023/01/23 08:36:35;;;;;;;75.60;26.92;;;;;;;2.62;100.00;103667.03;5024496;28;20231;-70
2023/01/23 08:39:01;;;;;;;57.90;24.35;;;;;;;2.69;100.00;103664.50;5025403;28;20040;-70
2023/01/23 08:41:26;;;;;;;61.75;22.98;;;;;;;2.60;100.00;103666.97;5029847;28;20045;-71
2023/01/23 08:43:51;;;;;;;62.25;23.77;;;;;;;2.63;100.00;103664.41;5025120;28;20068;-70
2023/01/23 08:46:17;;;;;;;65.38;22.67;;;;;;;2.64;100.00;103663.53;5025117;28;20045;-70
2023/01/23 08:48:42;;;;;;;56.53;24.48;;;;;;;2.77;100.00;103672.53;5030403;28;20034;-70
2023/01/23 08:51:11;;;;;;;68.45;25.10;;;;;;;2.77;100.00;103665.50;5026045;28;20033;-70
2023/01/23 08:53:36;;;;;;;61.22;25.92;;;;;;;2.76;100.00;103674.28;5030210;28;20122;-71
2023/01/23 08:56:15;;;;;;;65.95;24.50;;;;;;;2.80;100.00;103678.69;5026535;28;20117;-70
2023/01/23 08:58:41;;;;;;;62.13;22.73;;;;;;;2.66;100.00;103668.81;5030062;28;20040;-70
2023/01/23 09:01:14;;;;;;;67.63;25.45;;;;;;;2.89;100.00;103683.22;5022297;28;20049;-70
2023/01/23 09:03:40;;;;;;;55.30;22.02;;;;;;;2.81;100.00;103684.84;5021929;28;20044;-71
2023/01/23 09:06:05;;;;;;;68.95;25.38;;;;;;;2.79;100.00;103686.59;4992062;28;20052;-71
2023/01/23 09:08:31;;;;;;;62.60;25.50;;;;;;;2.83;100.00;103686.66;5032442;28;20033;-70
2023/01/23 09:11:01;;;;;;;59.42;25.63;;;;;;;2.82;100.00;103676.09;5025142;28;20045;-71
2023/01/23 09:13:26;;;;;;;64.72;25.23;;;;;;;2.76;100.00;103679.53;5030374;28;20079;-69
2023/01/23 09:15:52;;;;;;;63.10;24.38;;;;;;;2.85;100.00;103676.13;5024704;28;20287;-70
2023/01/23 09:18:17;;;;;;;69.93;25.55;;;;;;;2.99;100.00;103666.69;5022614;28;20569;-72
2023/01/23 09:20:43;;;;;;;61.28;24.10;;;;;;;2.98;100.00;103659.63;5029355;28;20037;-70
2023/01/23 09:23:08;;;;;;;67.88;24.92;;;;;;;3.03;100.00;103660.59;5030249;28;20037;-71
2023/01/23 09:25:34;;;;;;;68.63;27.63;;;;;;;3.27;100.00;103660.03;5026139;28;20037;-70
2023/01/23 09:27:59;;;;;;;66.32;25.90;;;;;;;3.45;100.00;103656.72;5030453;28;20566;-71
2023/01/23 09:30:25;;;;;;;70.80;25.77;;;;;;;3.43;100.00;103652.31;5034078;28;20030;-70
2023/01/23 09:32:50;;;;;;;61.10;22.55;;;;;;;3.26;100.00;103658.25;5029888;28;20042;-71
2023/01/23 09:35:15;;;;;;;66.35;24.02;;;;;;;3.40;100.00;103662.81;5004529;28;20041;-71
2023/01/23 09:37:59;;;;;;;53.85;24.55;;;;;;;3.25;100.00;103653.84;5033565;28;20025;-70
2023/01/23 09:40:35;;;;;;;67.50;23.02;;;;;;;3.35;100.00;103663.63;5022394;28;20107;-70
2023/01/23 09:43:23;;;;;;;63.72;24.27;;;;;;;3.40;100.00;103666.31;5027149;28;20052;-71
2023/01/23 09:46:01;;;;;;;61.67;24.50;;;;;;;3.32;100.00;103676.78;5033590;28;20045;-71
2023/01/23 09:48:38;;;;;;;55.72;24.90;;;;;;;3.43;100.00;103681.31;5023705;28;20125;-70
2023/01/23 09:51:13;;;;;;;58.40;25.73;;;;;;;3.66;100.00;103677.16;5028790;28;20099;-70
2023/01/23 09:53:40;;;;;;;57.53;23.92;;;;;;;3.47;100.00;103684.00;5019962;28;20028;-71
2023/01/23 09:56:21;;;;;;;51.60;21.92;;;;;;;3.61;100.00;103686.78;5023855;28;20072;-70
2023/01/23 09:58:59;;;;;;;54.28;21.60;;;;;;;3.51;100.00;103688.44;5022941;28;20041;-71
2023/01/23 10:01:27;;;;;;;54.05;21.98;;;;;;;3.59;100.00;103689.41;5026249;28;20102;-71
2023/01/23 10:03:53;;;;;;;53.00;20.98;;;;;;;3.44;100.00;103689.22;5023822;28;20034;-70
2023/01/23 10:06:26;;;;;;;51.13;20.58;;;;;;;3.50;100.00;103691.94;5025911;28;20387;-70
2023/01/23 10:09:20;;;;;;;57.47;22.17;;;;;;;3.35;100.00;103684.72;5019032;28;20115;-70
2023/01/23 10:12:00;;;;;;;48.78;20.98;;;;;;;3.46;100.00;103686.59;5029121;28;20843;-70
2023/01/23 10:15:04;;;;;;;46.60;20.75;;;;;;;3.64;100.00;103684.19;5005625;28;20053;-70
2023/01/23 10:17:42;;;;;;;52.15;21.25;;;;;;;3.57;100.00;103688.53;5025064;28;20052;-70
2023/01/23 10:20:16;;;;;;;45.20;20.48;;;;;;;3.79;100.00;103684.38;5023194;28;20050;-70
2023/01/23 10:23:03;;;;;;;48.55;20.52;;;;;;;3.76;100.00;103684.31;5022926;28;20114;-70
2023/01/23 10:25:34;;;;;;;42.83;18.23;;;;;;;3.63;100.00;103695.63;5025144;28;20047;-71
2023/01/23 10:28:10;;;;;;;50.25;19.17;;;;;;;3.63;100.00;103703.53;5025057;28;20076;-70
2023/01/23 10:30:38;;;;;;;48.60;19.30;;;;;;;3.71;100.00;103699.22;5031862;28;20840;-70
2023/01/23 10:33:17;;;;;;;46.40;18.55;;;;;;;3.84;100.00;103692.34;5028116;28;20029;-70
2023/01/23 10:35:50;;;;;;;48.03;19.92;;;;;;;3.83;100.00;103682.66;5009167;28;20121;-71
2023/01/23 10:38:26;;;;;;;45.65;20.58;;;;;;;3.88;100.00;103683.56;5027725;28;20056;-69
2023/01/23 10:43:37;;;;;;;44.00;17.80;;;;;;;3.73;100.00;103686.94;5022731;28;20079;-70
2023/01/23 10:46:11;;;;;;;39.95;17.10;;;;;;;3.76;100.00;103683.44;5025752;28;20124;-70
2023/01/23 10:48:50;;;;;;;45.13;18.90;;;;;;;3.97;100.00;103682.78;5029133;28;20041;-71
2023/01/23 10:51:37;;;;;;;38.25;17.40;;;;;;;4.02;100.00;103683.72;5027824;28;20063;-70
2023/01/23 10:54:19;;;;;;;42.92;18.33;;;;;;;3.91;100.00;103688.88;5008100;28;20601;-70
2023/01/23 10:57:08;;;;;;;;;;;;;;;3.80;100.00;103686.13;5032447;28;20029;-72
2023/01/23 10:59:35;;;;;;;47.05;19.48;;;;;;;3.95;100.00;103684.53;5020859;28;19921;-70
2023/01/23 11:02:11;;;;;;;46.80;19.63;;;;;;;3.93;100.00;103686.28;5026485;28;20159;-70
2023/01/23 11:04:39;;;;;;;41.90;17.30;;;;;;;4.07;100.00;103682.91;5024246;28;20044;-70
2023/01/23 11:07:17;;;;;;;42.95;18.33;;;;;;;4.09;100.00;103683.78;5025399;28;20490;-71
2023/01/23 11:10:08;;;;;;;44.28;19.23;;;;;;;4.32;100.00;103681.38;5023876;28;20580;-71
2023/01/23 11:12:46;;;;;;;43.53;17.45;;;;;;;4.13;100.00;103675.03;5015533;28;20663;-71
2023/01/23 11:15:22;;;;;;;41.05;17.67;;;;;;;4.35;100.00;103684.00;5018815;28;20514;-71
2023/01/23 11:17:49;;;;;;;46.85;18.85;;;;;;;4.31;100.00;103683.97;5024332;28;20082;-71
2023/01/23 11:20:30;;;;;;;42.65;20.30;;;;;;;4.26;100.00;103675.13;5029071;28;20474;-71
2023/01/23 11:22:59;;;;;;;39.15;18.15;;;;;;;4.50;100.00;103675.31;5023634;28;20037;-71
2023/01/23 11:25:29;;;;;;;41.40;18.27;;;;;;;4.46;100.00;103677.94;5027956;28;20809;-71
2023/01/23 11:28:16;;;;;;;42.78;17.48;;;;;;;4.72;100.00;103678.09;5025067;28;20048;-71
2023/01/23 11:30:55;;;;;;;41.65;18.75;;;;;;;4.66;100.00;103671.91;5028594;28;20655;-71